Time;durP1;ratioP1;P1;durP2;ratioP2;P2;SDS_P1;SDS_P2;PMS_P1;PMS_P2;Temp;Humidity;BMP_temperature;BMP_pressure;BME280_temperature;BME280_humidity;BME280_pressure;Samples;Min_cycle;Max_cycle;Signal;HPM_P1;HPM_P2
2023/02/02 00:01:39;;;;;;;27.02;5.22;;;;;;;;;;5018423;28;20181;-75
2023/02/02 00:04:05;;;;;;;10.20;4.30;;;;;;;;;;5017118;28;20194;-75
2023/02/02 00:06:31;;;;;;;17.83;5.85;;;;;;;;;;5017666;28;20421;-75
2023/02/02 00:08:58;;;;;;;17.83;5.18;;;;;;;;;;5017181;28;20293;-75
2023/02/02 00:11:25;;;;;;;19.42;5.05;;;;;;;;;;5017073;28;20548;-75
2023/02/02 00:13:51;;;;;;;19.50;4.82;;;;;;;;;;5017239;28;20265;-75
2023/02/02 00:16:26;;;;;;;18.63;6.18;;;;;;;;;;5017537;28;20648;-75
2023/02/02 00:18:52;;;;;;;16.20;5.05;;;;;;;;;;5017387;28;20174;-75
2023/02/02 00:21:18;;;;;;;15.93;4.93;;;;;;;;;;5017506;28;20207;-75
2023/02/02 00:23:44;;;;;;;10.57;4.20;;;;;;;;;;5017381;28;20178;-75
2023/02/02 00:26:10;;;;;;;13.02;3.60;;;;;;;;;;5017251;28;20411;-75
2023/02/02 00:28:36;;;;;;;12.75;4.90;;;;;;;;;;5017554;28;20217;-74
2023/02/02 00:31:02;;;;;;;21.13;4.60;;;;;;;;;;5016819;28;20531;-75
2023/02/02 00:33:28;;;;;;;17.45;4.50;;;;;;;;;;5017256;28;20743;-75
2023/02/02 00:35:54;;;;;;;24.17;4.47;;;;;;;;;;5016546;28;20230;-75
2023/02/02 00:38:20;;;;;;;17.53;5.80;;;;;;;;;;5021614;28;20512;-75
2023/02/02 00:40:46;;;;;;;8.43;3.60;;;;;;;;;;5021364;28;20887;-75
2023/02/02 00:43:12;;;;;;;20.37;4.43;;;;;;;;;;5021587;28;20405;-75
2023/02/02 00:45:38;;;;;;;19.80;4.20;;;;;;;;;;5021412;28;20412;-75
2023/02/02 00:48:04;;;;;;;14.60;4.30;;;;;;;;;;5021712;28;20405;-75
2023/02/02 00:50:30;;;;;;;17.15;4.10;;;;;;;;;;5021281;28;20432;-75
2023/02/02 00:52:59;;;;;;;15.57;4.47;;;;;;;;;;5021371;28;20179;-75
2023/02/02 00:55:26;;;;;;;14.90;4.40;;;;;;;;;;5021577;28;20179;-75
2023/02/02 00:57:52;;;;;;;21.98;4.82;;;;;;;;;;5019090;28;20234;-75
2023/02/02 01:00:20;;;;;;;20.30;6.45;;;;;;;;;;5021328;28;20217;-75
2023/02/02 01:02:46;;;;;;;22.77;4.70;;;;;;;;;;5021474;28;20210;-75
2023/02/02 01:05:12;;;;;;;16.52;4.13;;;;;;;;;;5021008;28;20175;-75
2023/02/02 01:07:39;;;;;;;10.95;3.17;;;;;;;;;;5021312;28;20210;-75
2023/02/02 01:10:06;;;;;;;15.40;4.65;;;;;;;;;;5020685;28;20194;-75
2023/02/02 01:12:32;;;;;;;11.65;3.88;;;;;;;;;;5020612;28;20179;-75
2023/02/02 01:14:57;;;;;;;20.67;4.30;;;;;;;;;;5020311;28;20197;-75
2023/02/02 01:17:23;;;;;;;14.83;4.20;;;;;;;;;;5020003;28;20508;-75
2023/02/02 01:19:49;;;;;;;17.07;4.37;;;;;;;;;;5019932;28;20422;-75
2023/02/02 01:22:15;;;;;;;15.13;5.63;;;;;;;;;;5020244;28;20406;-75
2023/02/02 01:24:41;;;;;;;17.27;5.30;;;;;;;;;;5020986;28;20445;-75
2023/02/02 01:27:07;;;;;;;12.37;3.93;;;;;;;;;;5020171;28;20410;-75
2023/02/02 01:29:33;;;;;;;21.90;6.13;;;;;;;;;;5020512;28;20484;-75
2023/02/02 01:31:59;;;;;;;16.25;5.25;;;;;;;;;;5020465;28;20543;-75
2023/02/02 01:34:25;;;;;;;15.93;4.95;;;;;;;;;;5021044;28;20235;-75
2023/02/02 01:36:51;;;;;;;24.60;5.50;;;;;;;;;;5020789;28;20218;-75
2023/02/02 01:39:17;;;;;;;29.48;5.32;;;;;;;;;;5018779;28;20983;-75
2023/02/02 01:41:43;;;;;;;18.40;4.13;;;;;;;;;;5020854;28;20220;-75
2023/02/02 01:44:28;;;;;;;22.33;4.50;;;;;;;;;;5019604;28;20409;-75
2023/02/02 01:46:54;;;;;;;18.70;5.60;;;;;;;;;;5019862;28;20178;-76
2023/02/02 01:49:20;;;;;;;19.17;5.27;;;;;;;;;;5019481;28;20734;-75
2023/02/02 01:51:49;;;;;;;15.15;4.72;;;;;;;;;;5020700;28;20503;-75
2023/02/02 01:54:28;;;;;;;21.08;5.88;;;;;;;;;;5019593;28;20185;-75
2023/02/02 01:56:58;;;;;;;20.83;4.50;;;;;;;;;;5019629;28;20737;-76
2023/02/02 01:59:24;;;;;;;17.85;4.45;;;;;;;;;;5019808;28;20181;-75
2023/02/02 02:01:51;;;;;;;20.90;4.75;;;;;;;;;;5019664;28;20182;-75
2023/02/02 02:04:17;;;;;;;15.65;4.38;;;;;;;;;;5019209;28;20188;-74
2023/02/02 02:06:44;;;;;;;13.88;4.32;;;;;;;;;;5019485;28;20179;-75
2023/02/02 02:09:10;;;;;;;21.55;5.18;;;;;;;;;;5018956;28;20569;-75
2023/02/02 02:11:36;;;;;;;14.73;4.13;;;;;;;;;;5020360;28;20254;-75
2023/02/02 02:16:55;;;;;;;18.23;5.30;;;;;;;;;;5019649;28;20167;-75
2023/02/02 02:26:32;;;;;;;18.42;4.35;;;;;;;;;;5019910;28;20586;-75
2023/02/02 02:28:41;;;;;;;18.83;4.07;;;;;;;;;;5019782;28;20639;-75
2023/02/02 02:31:16;;;;;;;17.73;4.65;;;;;;;;;;5018428;28;20178;-75
2023/02/02 02:33:47;;;;;;;9.70;3.80;;;;;;;;;;5019193;28;20178;-75
2023/02/02 02:36:21;;;;;;;22.65;4.65;;;;;;;;;;5019163;28;20166;-75
2023/02/02 02:38:56;;;;;;;19.25;5.63;;;;;;;;;;5018813;28;20185;-75
2023/02/02 02:41:33;;;;;;;14.32;3.75;;;;;;;;;;5018674;28;20169;-75
2023/02/02 02:44:00;;;;;;;15.85;4.00;;;;;;;;;;5017330;28;20178;-75
2023/02/02 02:46:27;;;;;;;14.43;4.15;;;;;;;;;;5018475;28;20186;-75
2023/02/02 02:48:55;;;;;;;14.45;4.18;;;;;;;;;;5018862;28;20267;-75
2023/02/02 02:51:39;;;;;;;19.70;4.72;;;;;;;;;;5019031;28;20206;-75
2023/02/02 02:54:05;;;;;;;15.13;3.80;;;;;;;;;;5019270;28;20181;-75
2023/02/02 02:56:31;;;;;;;13.40;3.90;;;;;;;;;;5017463;28;20249;-75
2023/02/02 02:59:20;;;;;;;19.10;5.23;;;;;;;;;;5019100;28;20174;-75
2023/02/02 03:02:05;;;;;;;15.50;5.32;;;;;;;;;;5018714;28;20413;-75
2023/02/02 03:04:53;;;;;;;20.02;4.43;;;;;;;;;;5018793;28;20175;-75
2023/02/02 03:07:27;;;;;;;16.20;4.35;;;;;;;;;;5017733;28;20202;-75
2023/02/02 03:09:54;;;;;;;18.08;4.72;;;;;;;;;;5018533;28;20198;-75
2023/02/02 03:12:20;;;;;;;12.88;4.30;;;;;;;;;;5018238;28;20181;-75
2023/02/02 03:14:46;;;;;;;16.07;4.00;;;;;;;;;;5018440;28;20190;-75
2023/02/02 03:17:12;;;;;;;11.50;4.20;;;;;;;;;;5018402;28;20798;-75
2023/02/02 03:19:38;;;;;;;14.03;4.77;;;;;;;;;;5018522;28;20414;-75
2023/02/02 03:22:04;;;;;;;23.13;7.10;;;;;;;;;;5017096;28;20466;-75
2023/02/02 03:24:30;;;;;;;19.33;4.70;;;;;;;;;;5018752;28;20441;-75
2023/02/02 03:26:56;;;;;;;16.30;5.70;;;;;;;;;;5017680;28;20409;-75
2023/02/02 03:29:22;;;;;;;22.90;5.93;;;;;;;;;;5017637;28;20973;-75
2023/02/02 03:31:48;;;;;;;23.20;5.80;;;;;;;;;;5017915;28;20813;-75
2023/02/02 03:34:14;;;;;;;19.02;5.53;;;;;;;;;;5018139;28;20186;-75
2023/02/02 03:36:40;;;;;;;18.20;5.23;;;;;;;;;;5018227;28;20208;-75
2023/02/02 03:39:06;;;;;;;13.20;4.60;;;;;;;;;;5016595;28;20420;-75
2023/02/02 03:41:32;;;;;;;12.90;5.20;;;;;;;;;;5018353;28;20184;-75
2023/02/02 03:43:58;;;;;;;14.23;5.60;;;;;;;;;;5017945;28;20464;-75
2023/02/02 03:46:24;;;;;;;11.63;4.20;;;;;;;;;;5017811;28;20495;-75
2023/02/02 03:48:50;;;;;;;23.93;5.57;;;;;;;;;;5017445;28;20825;-75
2023/02/02 03:51:16;;;;;;;18.90;5.82;;;;;;;;;;5017215;28;20873;-75
2023/02/02 03:53:48;;;;;;;15.32;4.38;;;;;;;;;;5017957;28;20229;-74
2023/02/02 03:56:15;;;;;;;24.92;5.80;;;;;;;;;;5017637;28;20241;-75
2023/02/02 03:58:41;;;;;;;15.73;5.10;;;;;;;;;;5017983;28;20206;-75
2023/02/02 04:01:09;;;;;;;13.77;5.07;;;;;;;;;;5017460;28;20185;-75
2023/02/02 04:03:35;;;;;;;15.80;4.05;;;;;;;;;;5017842;28;20175;-75
2023/02/02 04:06:02;;;;;;;22.30;5.03;;;;;;;;;;5017804;28;20316;-76
2023/02/02 04:08:28;;;;;;;14.38;4.22;;;;;;;;;;5017366;28;20402;-75
2023/02/02 04:10:54;;;;;;;12.23;3.90;;;;;;;;;;5017310;28;20200;-75
2023/02/02 04:13:20;;;;;;;14.43;5.10;;;;;;;;;;5017357;28;20277;-75
2023/02/02 04:15:47;;;;;;;16.13;4.70;;;;;;;;;;5017563;28;20757;-75
2023/02/02 04:18:13;;;;;;;14.70;4.22;;;;;;;;;;5017197;28;20407;-75
2023/02/02 04:20:39;;;;;;;13.43;4.67;;;;;;;;;;5018273;28;20717;-74
2023/02/02 04:23:05;;;;;;;14.07;4.68;;;;;;;;;;5017370;28;20414;-75
2023/02/02 04:25:31;;;;;;;18.10;4.05;;;;;;;;;;5017622;28;20189;-75
2023/02/02 04:27:57;;;;;;;17.70;5.57;;;;;;;;;;5016863;28;20235;-75
2023/02/02 04:30:23;;;;;;;22.93;6.33;;;;;;;;;;5017077;28;20473;-75
2023/02/02 04:32:50;;;;;;;16.23;4.68;;;;;;;;;;5017555;28;20444;-75
2023/02/02 04:35:16;;;;;;;15.10;5.65;;;;;;;;;;5016552;28;20185;-75
2023/02/02 04:37:42;;;;;;;17.13;4.40;;;;;;;;;;5017235;28;20645;-75
2023/02/02 04:40:08;;;;;;;18.10;5.07;;;;;;;;;;5017303;28;20417;-75
2023/02/02 04:42:34;;;;;;;22.17;6.45;;;;;;;;;;5017366;28;20910;-75
2023/02/02 04:45:00;;;;;;;17.73;5.97;;;;;;;;;;5017956;28;20183;-75
2023/02/02 04:47:26;;;;;;;14.13;5.00;;;;;;;;;;5036563;28;20181;-75
2023/02/02 04:49:52;;;;;;;25.33;6.10;;;;;;;;;;5035511;28;20464;-75
2023/02/02 04:52:18;;;;;;;12.30;6.27;;;;;;;;;;5036467;28;20418;-75
2023/02/02 04:54:44;;;;;;;16.60;6.47;;;;;;;;;;5037217;28;20401;-75
2023/02/02 04:57:10;;;;;;;15.00;5.87;;;;;;;;;;5036507;28;20239;-75
2023/02/02 04:59:36;;;;;;;21.73;6.30;;;;;;;;;;5036964;28;20413;-75
2023/02/02 05:02:02;;;;;;;15.38;4.90;;;;;;;;;;5051867;28;20508;-75
2023/02/02 05:04:28;;;;;;;19.63;5.85;;;;;;;;;;5036776;28;20187;-75
2023/02/02 05:06:54;;;;;;;23.40;7.22;;;;;;;;;;5035382;28;20188;-75
2023/02/02 05:09:20;;;;;;;20.73;5.60;;;;;;;;;;5036023;28;20566;-75
2023/02/02 05:11:46;;;;;;;20.37;5.57;;;;;;;;;;5036229;28;20404;-75
2023/02/02 05:14:13;;;;;;;24.27;6.40;;;;;;;;;;5035558;28;20463;-75
2023/02/02 05:16:39;;;;;;;25.08;5.38;;;;;;;;;;5036820;28;20406;-74
2023/02/02 05:19:05;;;;;;;16.15;5.53;;;;;;;;;;5036591;28;20636;-74
2023/02/02 05:21:31;;;;;;;18.33;6.33;;;;;;;;;;5036220;28;20240;-74
2023/02/02 05:23:58;;;;;;;9.38;5.40;;;;;;;;;;5039561;28;20425;-74
2023/02/02 05:26:25;;;;;;;17.70;6.30;;;;;;;;;;5039715;28;20177;-74
2023/02/02 05:28:51;;;;;;;22.45;5.68;;;;;;;;;;5040729;28;20288;-74
2023/02/02 05:31:18;;;;;;;16.92;6.60;;;;;;;;;;5040406;28;20178;-74
2023/02/02 05:33:44;;;;;;;13.50;5.20;;;;;;;;;;5040378;28;20178;-74
2023/02/02 05:36:10;;;;;;;22.23;5.78;;;;;;;;;;5039474;28;20178;-74
2023/02/02 05:38:36;;;;;;;13.15;6.55;;;;;;;;;;5040122;28;20212;-74
2023/02/02 05:41:03;;;;;;;20.85;6.90;;;;;;;;;;5040467;28;20182;-74
2023/02/02 05:43:30;;;;;;;18.30;6.75;;;;;;;;;;5038663;28;20631;-74
2023/02/02 05:45:56;;;;;;;17.25;5.95;;;;;;;;;;5040082;28;20174;-74
2023/02/02 05:48:22;;;;;;;20.45;6.28;;;;;;;;;;5039651;28;20174;-74
2023/02/02 05:50:55;;;;;;;16.75;6.82;;;;;;;;;;5040213;28;20300;-74
2023/02/02 05:53:21;;;;;;;23.92;5.85;;;;;;;;;;5039161;28;20172;-74
2023/02/02 05:55:47;;;;;;;14.90;6.22;;;;;;;;;;5040271;28;20182;-75
2023/02/02 05:58:13;;;;;;;23.87;7.67;;;;;;;;;;5039511;28;20226;-74
2023/02/02 06:00:39;;;;;;;18.83;7.33;;;;;;;;;;5039716;28;20410;-75
2023/02/02 06:03:05;;;;;;;25.97;7.47;;;;;;;;;;5054985;28;20409;-75
2023/02/02 06:05:31;;;;;;;17.53;7.20;;;;;;;;;;5039377;28;20411;-75
2023/02/02 06:07:57;;;;;;;27.10;9.67;;;;;;;;;;5039093;28;20873;-75
2023/02/02 06:10:22;;;;;;;20.93;7.47;;;;;;;;;;5037703;28;20474;-75
2023/02/02 06:12:48;;;;;;;13.10;5.87;;;;;;;;;;5039685;28;20404;-75
2023/02/02 06:15:14;;;;;;;28.90;9.60;;;;;;;;;;5039502;28;20413;-75
2023/02/02 06:17:40;;;;;;;11.77;6.30;;;;;;;;;;5039435;28;20397;-74
2023/02/02 06:20:06;;;;;;;20.53;7.20;;;;;;;;;;5055091;28;20406;-74
2023/02/02 06:22:32;;;;;;;24.27;7.40;;;;;;;;;;5039586;28;20415;-75
2023/02/02 06:24:58;;;;;;;18.33;8.03;;;;;;;;;;5039244;28;20180;-74
2023/02/02 06:27:24;;;;;;;19.67;7.15;;;;;;;;;;5038652;28;20410;-74
2023/02/02 06:29:50;;;;;;;18.15;6.95;;;;;;;;;;5039564;28;20198;-74
2023/02/02 06:32:16;;;;;;;16.53;6.83;;;;;;;;;;5020642;28;20195;-75
2023/02/02 06:34:42;;;;;;;23.42;9.18;;;;;;;;;;5018688;28;20443;-74
2023/02/02 06:37:08;;;;;;;19.90;8.07;;;;;;;;;;5018058;28;20258;-74
2023/02/02 06:39:34;;;;;;;19.33;8.30;;;;;;;;;;5017713;28;20459;-74
2023/02/02 06:42:00;;;;;;;21.43;9.30;;;;;;;;;;5019340;28;20179;-74
2023/02/02 06:44:26;;;;;;;18.40;7.80;;;;;;;;;;5019683;28;20919;-74
2023/02/02 06:46:52;;;;;;;17.10;7.53;;;;;;;;;;5018613;28;20433;-74
2023/02/02 06:49:18;;;;;;;18.98;8.70;;;;;;;;;;5018793;28;20493;-74
2023/02/02 06:51:46;;;;;;;17.37;8.07;;;;;;;;;;5018738;28;20179;-74
2023/02/02 06:54:12;;;;;;;15.25;6.45;;;;;;;;;;5018171;28;20398;-77
2023/02/02 06:56:38;;;;;;;29.70;7.30;;;;;;;;;;5018334;28;20287;-74
2023/02/02 06:59:04;;;;;;;16.80;7.87;;;;;;;;;;5018945;28;20485;-74
2023/02/02 07:01:30;;;;;;;18.73;6.90;;;;;;;;;;5018841;28;20754;-74
2023/02/02 07:03:56;;;;;;;15.53;7.00;;;;;;;;;;5018726;28;20263;-74
2023/02/02 07:06:23;;;;;;;20.73;8.02;;;;;;;;;;5018392;28;20417;-74
2023/02/02 07:08:50;;;;;;;15.85;6.40;;;;;;;;;;5019010;28;20253;-74
2023/02/02 07:11:16;;;;;;;21.60;6.80;;;;;;;;;;5018347;28;20174;-74
2023/02/02 07:13:44;;;;;;;22.45;7.28;;;;;;;;;;5018985;28;20179;-74
2023/02/02 07:16:11;;;;;;;25.48;8.35;;;;;;;;;;5018426;28;20178;-74
2023/02/02 07:18:38;;;;;;;31.90;8.65;;;;;;;;;;5018173;28;20195;-74
2023/02/02 07:21:04;;;;;;;19.67;5.95;;;;;;;;;;5018545;28;20579;-74
2023/02/02 07:23:31;;;;;;;18.13;6.50;;;;;;;;;;5016152;28;20190;-74
2023/02/02 07:26:17;;;;;;;20.58;7.45;;;;;;;;;;5018345;28;20195;-74
2023/02/02 07:28:43;;;;;;;17.70;5.60;;;;;;;;;;5018193;28;20200;-74
2023/02/02 07:31:16;;;;;;;18.87;6.60;;;;;;;;;;5018624;28;20187;-74
2023/02/02 07:33:42;;;;;;;19.80;6.53;;;;;;;;;;5016720;28;20422;-75
2023/02/02 07:36:09;;;;;;;19.90;6.93;;;;;;;;;;5016538;28;20213;-74
2023/02/02 07:38:35;;;;;;;23.20;6.28;;;;;;;;;;5017929;28;20179;-75
2023/02/02 07:41:02;;;;;;;22.63;5.97;;;;;;;;;;5016810;28;20209;-74
2023/02/02 07:43:27;;;;;;;22.83;4.90;;;;;;;;;;5017614;28;20833;-74
2023/02/02 07:45:54;;;;;;;19.93;6.13;;;;;;;;;;5017026;28;20175;-75
2023/02/02 07:48:20;;;;;;;24.77;6.85;;;;;;;;;;5016142;28;20427;-75
2023/02/02 07:50:46;;;;;;;7.90;4.80;;;;;;;;;;5018250;28;20182;-74
2023/02/02 07:53:12;;;;;;;21.83;6.57;;;;;;;;;;5017012;28;20268;-75
2023/02/02 07:55:38;;;;;;;14.07;5.80;;;;;;;;;;5017677;28;20429;-75
2023/02/02 07:58:06;;;;;;;15.67;6.97;;;;;;;;;;5020851;28;21002;-74
2023/02/02 08:00:32;;;;;;;19.75;6.75;;;;;;;;;;5023104;28;20416;-75
2023/02/02 08:02:58;;;;;;;18.70;7.13;;;;;;;;;;5031895;28;20213;-74
2023/02/02 08:05:24;;;;;;;13.53;5.17;;;;;;;;;;5028141;28;20430;-75
2023/02/02 08:07:50;;;;;;;19.10;7.35;;;;;;;;;;5025107;28;20405;-75
2023/02/02 08:10:16;;;;;;;25.70;9.97;;;;;;;;;;5033393;28;20210;-77
2023/02/02 08:12:42;;;;;;;12.82;6.25;;;;;;;;;;5069501;28;20407;-75
2023/02/02 08:15:08;;;;;;;17.00;7.50;;;;;;;;;;5037224;28;20613;-74
2023/02/02 08:17:36;;;;;;;18.40;6.55;;;;;;;;;;5069094;28;20448;-74
2023/02/02 08:20:02;;;;;;;23.00;9.77;;;;;;;;;;5037291;28;20177;-74
2023/02/02 08:22:28;;;;;;;26.97;8.20;;;;;;;;;;5037554;28;20180;-75
2023/02/02 08:24:54;;;;;;;12.70;7.60;;;;;;;;;;5037084;28;20458;-74
2023/02/02 08:27:20;;;;;;;21.30;9.40;;;;;;;;;;5036854;28;20508;-75
2023/02/02 08:29:46;;;;;;;21.67;8.03;;;;;;;;;;5037451;28;20470;-75
2023/02/02 08:32:12;;;;;;;20.92;8.55;;;;;;;;;;5037760;28;20767;-74
2023/02/02 08:34:39;;;;;;;24.75;10.23;;;;;;;;;;5037441;28;20185;-74
2023/02/02 08:37:05;;;;;;;24.35;9.93;;;;;;;;;;5037538;28;20176;-74
2023/02/02 08:39:31;;;;;;;17.10;8.93;;;;;;;;;;5037056;28;20670;-74
2023/02/02 08:41:57;;;;;;;19.13;9.17;;;;;;;;;;5036763;28;20200;-74
2023/02/02 08:44:24;;;;;;;19.88;9.43;;;;;;;;;;5036665;28;20415;-75
2023/02/02 08:46:50;;;;;;;31.17;10.57;;;;;;;;;;5036776;28;20635;-74
2023/02/02 08:49:16;;;;;;;24.50;9.60;;;;;;;;;;5037508;28;20265;-75
2023/02/02 08:51:42;;;;;;;17.17;8.97;;;;;;;;;;5037073;28;20445;-74
2023/02/02 08:54:08;;;;;;;29.27;8.63;;;;;;;;;;5037945;28;20804;-75
2023/02/02 08:56:34;;;;;;;21.33;11.30;;;;;;;;;;5036244;28;20876;-75
2023/02/02 08:59:03;;;;;;;21.83;10.70;;;;;;;;;;5040282;28;20412;-75
2023/02/02 09:01:30;;;;;;;19.15;8.65;;;;;;;;;;5072309;28;20519;-75
2023/02/02 09:03:57;;;;;;;22.90;11.02;;;;;;;;;;5039975;28;20239;-74
2023/02/02 09:06:27;;;;;;;20.88;9.75;;;;;;;;;;5040502;28;20272;-75
2023/02/02 09:08:53;;;;;;;14.25;7.68;;;;;;;;;;5041217;28;20205;-75
2023/02/02 09:11:19;;;;;;;23.03;9.47;;;;;;;;;;5041095;28;20661;-75
2023/02/02 09:13:47;;;;;;;22.27;9.88;;;;;;;;;;5040811;28;20459;-75
2023/02/02 09:16:14;;;;;;;19.30;10.27;;;;;;;;;;5040802;28;20256;-74
2023/02/02 09:18:40;;;;;;;16.33;8.38;;;;;;;;;;5040522;28;20999;-74
2023/02/02 09:21:08;;;;;;;17.40;9.13;;;;;;;;;;5072038;28;20181;-75
2023/02/02 09:23:35;;;;;;;23.42;8.30;;;;;;;;;;5030117;28;20190;-75
2023/02/02 09:26:11;;;;;;;19.75;9.82;;;;;;;;;;5020917;28;20181;-75
2023/02/02 09:28:37;;;;;;;13.15;9.13;;;;;;;;;;5020193;28;20174;-74
2023/02/02 09:31:04;;;;;;;23.67;7.75;;;;;;;;;;5020803;28;20186;-74
2023/02/02 09:33:30;;;;;;;19.48;9.43;;;;;;;;;;5020535;28;20221;-74
2023/02/02 09:35:56;;;;;;;12.50;6.60;;;;;;;;;;5020740;28;20181;-74
2023/02/02 09:38:22;;;;;;;17.92;8.40;;;;;;;;;;5019911;28;20826;-76
2023/02/02 09:40:48;;;;;;;15.10;7.70;;;;;;;;;;5020515;28;20175;-74
2023/02/02 09:43:30;;;;;;;11.37;6.87;;;;;;;;;;5020526;28;20408;-74
2023/02/02 09:46:18;;;;;;;13.13;7.88;;;;;;;;;;5019252;28;20424;-74
2023/02/02 09:48:58;;;;;;;25.15;8.73;;;;;;;;;;5020241;28;20202;-74
2023/02/02 09:51:26;;;;;;;13.50;8.88;;;;;;;;;;5020093;28;20167;-75
2023/02/02 09:53:54;;;;;;;17.85;11.02;;;;;;;;;;5020312;28;20228;-74
2023/02/02 09:56:29;;;;;;;17.83;9.52;;;;;;;;;;5019865;28;20255;-74
2023/02/02 09:58:55;;;;;;;14.45;8.70;;;;;;;;;;5020444;28;20170;-74
2023/02/02 10:01:24;;;;;;;10.25;8.30;;;;;;;;;;5020203;28;20771;-74
2023/02/02 10:04:00;;;;;;;13.80;8.70;;;;;;;;;;5020508;28;20185;-74
2023/02/02 10:06:35;;;;;;;17.83;7.97;;;;;;;;;;5019585;28;20186;-75
2023/02/02 10:09:10;;;;;;;14.73;9.15;;;;;;;;;;5019005;28;20207;-75
2023/02/02 10:11:48;;;;;;;12.75;7.20;;;;;;;;;;5019540;28;20181;-74
2023/02/02 10:14:21;;;;;;;25.13;10.00;;;;;;;;;;5018459;28;20620;-74
2023/02/02 10:16:48;;;;;;;12.32;8.65;;;;;;;;;;5019658;28;20183;-74
2023/02/02 10:19:15;;;;;;;13.07;9.73;;;;;;;;;;5019468;28;20201;-74
2023/02/02 10:21:50;;;;;;;15.75;9.82;;;;;;;;;;5018085;28;20183;-74
2023/02/02 10:24:18;;;;;;;15.70;9.90;;;;;;;;;;5019650;28;20242;-75
2023/02/02 10:26:49;;;;;;;18.70;9.52;;;;;;;;;;5019859;28;20236;-75
2023/02/02 10:29:17;;;;;;;11.48;7.72;;;;;;;;;;5019891;28;20262;-75
2023/02/02 10:31:52;;;;;;;20.70;9.88;;;;;;;;;;5019719;28;20208;-75
2023/02/02 10:34:24;;;;;;;17.33;10.25;;;;;;;;;;5031338;28;20178;-75
2023/02/02 10:36:53;;;;;;;22.02;10.55;;;;;;;;;;5035868;28;20186;-75
2023/02/02 10:39:34;;;;;;;24.33;10.38;;;;;;;;;;5029507;28;20259;-74
2023/02/02 10:42:00;;;;;;;15.40;9.73;;;;;;;;;;5019243;28;20191;-74
2023/02/02 10:44:33;;;;;;;17.80;9.90;;;;;;;;;;5019346;28;20221;-75
2023/02/02 10:47:00;;;;;;;16.60;9.20;;;;;;;;;;5019816;28;20423;-74
2023/02/02 10:49:32;;;;;;;21.85;11.48;;;;;;;;;;5017722;28;20207;-77
2023/02/02 10:52:10;;;;;;;19.08;9.88;;;;;;;;;;5019795;28;20627;-74
2023/02/02 10:54:54;;;;;;;26.20;11.52;;;;;;;;;;5018844;28;20174;-74
2023/02/02 10:57:33;;;;;;;20.10;10.90;;;;;;;;;;5019345;28;20224;-74
2023/02/02 11:00:20;;;;;;;17.30;10.50;;;;;;;;;;5019715;28;20172;-74
2023/02/02 11:02:47;;;;;;;13.80;9.55;;;;;;;;;;5019380;28;20174;-75
2023/02/02 11:08:01;;;;;;;16.92;9.98;;;;;;;;;;5018812;28;20266;-75
2023/02/02 11:10:27;;;;;;;19.60;7.72;;;;;;;;;;5019399;28;20285;-77
2023/02/02 11:12:55;;;;;;;14.48;8.48;;;;;;;;;;5018072;28;20258;-80
2023/02/02 11:15:29;;;;;;;23.02;9.30;;;;;;;;;;5017433;28;20731;-75
2023/02/02 11:17:55;;;;;;;16.15;7.78;;;;;;;;;;5017155;28;20186;-75
2023/02/02 11:20:31;;;;;;;22.17;8.67;;;;;;;;;;5017875;28;20180;-75
2023/02/02 11:23:01;;;;;;;17.75;8.57;;;;;;;;;;5019433;28;20410;-75
2023/02/02 11:25:38;;;;;;;19.15;7.53;;;;;;;;;;5027178;28;20506;-76
2023/02/02 11:28:18;;;;;;;22.75;9.95;;;;;;;;;;5028936;28;20166;-75
2023/02/02 11:30:50;;;;;;;33.50;11.25;;;;;;;;;;5031584;28;20198;-75
2023/02/02 11:33:19;;;;;;;18.30;7.97;;;;;;;;;;5037484;28;20174;-75
2023/02/02 11:35:53;;;;;;;19.02;8.50;;;;;;;;;;5037731;28;20174;-76
2023/02/02 11:38:20;;;;;;;15.65;7.57;;;;;;;;;;5037522;28;20228;-75
2023/02/02 11:40:53;;;;;;;15.75;7.95;;;;;;;;;;5069564;28;20170;-75
2023/02/02 11:43:30;;;;;;;10.38;6.43;;;;;;;;;;5037850;28;20269;-75
2023/02/02 11:46:06;;;;;;;14.60;7.72;;;;;;;;;;5037708;28;20304;-75
2023/02/02 11:48:37;;;;;;;16.83;8.30;;;;;;;;;;5036458;28;20268;-76
2023/02/02 11:51:05;;;;;;;11.60;7.55;;;;;;;;;;5038303;28;20206;-76
2023/02/02 11:53:35;;;;;;;14.50;7.13;;;;;;;;;;5037468;28;20245;-75
2023/02/02 11:56:05;;;;;;;21.33;7.50;;;;;;;;;;5037453;28;20526;-77
2023/02/02 11:58:46;;;;;;;15.32;7.05;;;;;;;;;;5037282;28;20213;-79
2023/02/02 12:01:29;;;;;;;16.65;7.38;;;;;;;;;;5033702;28;20182;-76
2023/02/02 12:03:59;;;;;;;15.02;7.22;;;;;;;;;;5016786;28;20215;-78
2023/02/02 12:06:26;;;;;;;13.80;6.75;;;;;;;;;;5017684;28;20183;-77
2023/02/02 12:08:55;;;;;;;22.50;6.70;;;;;;;;;;5017710;28;20249;-74
2023/02/02 12:11:39;;;;;;;15.15;6.97;;;;;;;;;;5017419;28;20229;-77
2023/02/02 12:14:18;;;;;;;11.82;7.28;;;;;;;;;;5016872;28;20218;-74
2023/02/02 12:16:52;;;;;;;13.95;8.15;;;;;;;;;;5017446;28;20155;-73
2023/02/02 12:19:18;;;;;;;11.07;6.18;;;;;;;;;;5016982;28;20656;-74
2023/02/02 12:21:53;;;;;;;11.80;6.00;;;;;;;;;;5016943;28;20177;-74
2023/02/02 12:24:22;;;;;;;14.02;6.80;;;;;;;;;;5016192;28;20951;-77
2023/02/02 12:26:52;;;;;;;18.98;6.68;;;;;;;;;;5016672;28;20230;-77
2023/02/02 12:29:27;;;;;;;9.90;5.75;;;;;;;;;;5016669;28;20561;-77
2023/02/02 12:31:59;;;;;;;9.55;5.72;;;;;;;;;;5017036;28;20178;-77
2023/02/02 12:34:40;;;;;;;10.70;5.78;;;;;;;;;;5017490;28;20225;-77
2023/02/02 12:37:13;;;;;;;16.23;6.57;;;;;;;;;;5017716;28;20195;-77
2023/02/02 12:39:59;;;;;;;16.05;5.68;;;;;;;;;;5016572;28;20501;-77
2023/02/02 12:42:35;;;;;;;12.68;5.07;;;;;;;;;;5005688;28;20195;-77
2023/02/02 12:45:22;;;;;;;12.57;4.95;;;;;;;;;;5017190;28;20166;-77
2023/02/02 12:47:55;;;;;;;9.93;4.65;;;;;;;;;;5015887;28;20680;-77
2023/02/02 12:50:24;;;;;;;13.93;5.10;;;;;;;;;;5016719;28;20298;-77
2023/02/02 12:53:01;;;;;;;12.15;4.72;;;;;;;;;;5016554;28;20170;-77
2023/02/02 12:55:30;;;;;;;13.27;5.78;;;;;;;;;;5016871;28;20166;-77
2023/02/02 12:58:09;;;;;;;7.75;4.50;;;;;;;;;;5015611;28;20227;-77
2023/02/02 13:00:37;;;;;;;6.20;4.57;;;;;;;;;;5015055;28;20205;-77
2023/02/02 13:03:21;;;;;;;11.00;4.90;;;;;;;;;;5016608;28;20185;-77
2023/02/02 13:05:47;;;;;;;9.68;4.00;;;;;;;;;;5016263;28;20183;-77
2023/02/02 13:08:19;;;;;;;10.07;3.90;;;;;;;;;;5016396;28;20182;-77
2023/02/02 13:10:47;;;;;;;8.48;4.20;;;;;;;;;;5016041;28;20445;-77
2023/02/02 13:13:16;;;;;;;11.35;3.97;;;;;;;;;;5016279;28;20175;-77
2023/02/02 13:15:44;;;;;;;8.45;3.88;;;;;;;;;;5016110;28;20182;-77
2023/02/02 13:18:14;;;;;;;15.45;4.60;;;;;;;;;;5016286;28;20178;-77
2023/02/02 13:20:48;;;;;;;8.00;3.92;;;;;;;;;;5016063;28;20709;-77
2023/02/02 13:23:23;;;;;;;7.93;4.10;;;;;;;;;;5016755;28;20167;-78
2023/02/02 13:25:55;;;;;;;9.63;4.05;;;;;;;;;;5015598;28;20193;-77
2023/02/02 13:28:27;;;;;;;8.05;3.72;;;;;;;;;;5016790;28;20179;-77
2023/02/02 13:30:56;;;;;;;8.07;3.72;;;;;;;;;;5014621;28;20280;-77
2023/02/02 13:33:33;;;;;;;13.38;3.40;;;;;;;;;;5015099;28;20235;-77
2023/02/02 13:36:13;;;;;;;8.90;3.50;;;;;;;;;;5016399;28;20178;-77
2023/02/02 13:38:41;;;;;;;12.85;4.50;;;;;;;;;;5016627;28;20591;-77
2023/02/02 13:41:11;;;;;;;8.32;2.95;;;;;;;;;;5015316;28;20175;-77
2023/02/02 13:43:38;;;;;;;11.52;2.92;;;;;;;;;;5016314;28;20155;-77
2023/02/02 13:46:22;;;;;;;8.13;3.50;;;;;;;;;;5017257;28;20171;-77
2023/02/02 13:48:48;;;;;;;9.02;3.08;;;;;;;;;;5019698;28;20179;-77
2023/02/02 13:51:33;;;;;;;5.80;2.77;;;;;;;;;;5019011;28;20669;-77
2023/02/02 13:54:11;;;;;;;10.30;4.00;;;;;;;;;;5019669;28;20398;-77
2023/02/02 13:56:52;;;;;;;8.52;3.05;;;;;;;;;;5018117;28;20230;-79
2023/02/02 13:59:29;;;;;;;9.88;3.55;;;;;;;;;;5019497;28;20581;-77
2023/02/02 14:01:56;;;;;;;8.38;2.90;;;;;;;;;;5018957;28;20664;-77
2023/02/02 14:04:24;;;;;;;5.28;2.90;;;;;;;;;;5023363;28;20186;-77
2023/02/02 14:06:55;;;;;;;8.35;3.25;;;;;;;;;;5038986;28;20181;-77
2023/02/02 14:09:24;;;;;;;8.77;2.88;;;;;;;;;;5038755;28;20677;-77
2023/02/02 14:11:56;;;;;;;3.75;2.40;;;;;;;;;;5038723;28;20213;-77
2023/02/02 14:14:31;;;;;;;9.23;4.28;;;;;;;;;;5038590;28;20176;-77
2023/02/02 14:16:58;;;;;;;5.53;2.42;;;;;;;;;;5038255;28;20173;-77
2023/02/02 14:19:30;;;;;;;5.68;2.50;;;;;;;;;;5038802;28;20173;-77
2023/02/02 14:21:59;;;;;;;10.50;3.33;;;;;;;;;;5038563;28;20185;-77
2023/02/02 14:24:25;;;;;;;12.52;3.03;;;;;;;;;;5038123;28;20205;-77
2023/02/02 14:26:52;;;;;;;10.82;3.38;;;;;;;;;;5038553;28;20166;-77
2023/02/02 14:29:28;;;;;;;7.13;2.53;;;;;;;;;;5038630;28;20194;-77
2023/02/02 14:31:56;;;;;;;9.55;3.35;;;;;;;;;;5038415;28;20170;-77
2023/02/02 14:34:29;;;;;;;8.60;3.25;;;;;;;;;;5031551;28;20178;-77
2023/02/02 14:37:14;;;;;;;9.10;2.75;;;;;;;;;;5038047;28;20188;-77
2023/02/02 14:39:49;;;;;;;5.80;2.50;;;;;;;;;;5038124;28;20174;-79
2023/02/02 14:45:11;;;;;;;6.03;2.40;;;;;;;;;;5037497;28;20185;-77
2023/02/02 14:47:52;;;;;;;14.30;3.40;;;;;;;;;;5038185;28;20187;-77
2023/02/02 14:50:23;;;;;;;7.60;2.35;;;;;;;;;;5037976;28;20224;-77
2023/02/02 14:52:58;;;;;;;9.27;2.53;;;;;;;;;;5037547;28;20182;-77
2023/02/02 14:55:25;;;;;;;7.80;2.75;;;;;;;;;;5037107;28;20185;-77
2023/02/02 14:57:55;;;;;;;7.95;2.35;;;;;;;;;;5037943;28;20230;-77